createdAt,value
2023-03-31T00:01:08.756Z,68.24
2023-03-31T00:03:38.697Z,68.26
2023-03-31T00:06:06.644Z,69.88
2023-03-31T00:08:37.681Z,69.07
2023-03-31T00:11:07.679Z,70.06
2023-03-31T00:13:36.812Z,68.81
2023-03-31T00:16:09.908Z,69.04
2023-03-31T00:18:37.724Z,69.46
2023-03-31T00:21:33.571Z,69.55
2023-03-31T00:24:07.324Z,68.98
2023-03-31T00:26:36.381Z,68.54
2023-03-31T00:29:06.971Z,69.06
2023-03-31T00:31:39.061Z,68.73
2023-03-31T00:34:07.849Z,68.24
2023-03-31T00:36:36.738Z,68.70
2023-03-31T00:39:09.519Z,68.80
2023-03-31T00:41:41.997Z,68.60
2023-03-31T00:44:24.501Z,67.97
2023-03-31T00:47:07.883Z,68.94
2023-03-31T00:49:46.674Z,68.64
2023-03-31T00:52:23.781Z,68.76
2023-03-31T00:55:03.830Z,69.23
2023-03-31T00:57:36.865Z,68.37
2023-03-31T01:00:15.943Z,68.33
2023-03-31T01:02:59.808Z,67.17
2023-03-31T01:05:44.075Z,68.81
2023-03-31T01:08:12.308Z,68.69
2023-03-31T01:10:51.182Z,68.02
2023-03-31T01:13:20.377Z,68.65
2023-03-31T01:15:48.052Z,68.41
2023-03-31T01:18:20.921Z,69.05
2023-03-31T01:21:47.268Z,68.61
2023-03-31T01:24:28.231Z,68.97
2023-03-31T01:27:54.085Z,68.54
2023-03-31T01:31:11.409Z,68.01
2023-03-31T01:34:31.025Z,68.69
2023-03-31T01:37:57.011Z,67.65
2023-03-31T01:41:28.203Z,67.62
2023-03-31T01:44:26.237Z,66.98
2023-03-31T01:47:52.127Z,67.23
2023-03-31T01:50:56.211Z,67.54
2023-03-31T01:53:41.397Z,67.13
2023-03-31T01:56:30.880Z,66.89
2023-03-31T01:59:20.016Z,67.23
2023-03-31T02:02:26.241Z,66.59
2023-03-31T02:05:00.966Z,67.23
2023-03-31T02:07:37.362Z,67.09
2023-03-31T02:10:09.120Z,66.56
2023-03-31T02:12:38.404Z,66.97
2023-03-31T02:15:11.986Z,68.55
2023-03-31T02:17:45.830Z,66.71
2023-03-31T02:20:18.291Z,68.58
2023-03-31T02:22:53.853Z,67.41
2023-03-31T02:25:29.454Z,69.08
2023-03-31T02:28:08.267Z,67.47
2023-03-31T02:31:10.303Z,67.76
2023-03-31T02:33:37.568Z,67.35
2023-03-31T02:36:06.271Z,67.97
2023-03-31T02:38:46.180Z,67.57
2023-03-31T02:41:13.553Z,66.92
2023-03-31T02:43:40.785Z,68.46
2023-03-31T02:46:08.250Z,68.41
2023-03-31T02:48:43.344Z,68.31
2023-03-31T02:51:58.973Z,67.17
2023-03-31T02:55:02.937Z,67.89
2023-03-31T02:58:46.657Z,68.11
2023-03-31T03:01:19.888Z,67.89
2023-03-31T03:03:52.934Z,68.55
2023-03-31T03:07:13.739Z,68.44
2023-03-31T03:10:16.367Z,68.51
2023-03-31T03:13:05.194Z,68.59
2023-03-31T03:16:06.690Z,68.39
2023-03-31T03:18:36.627Z,69.95
2023-03-31T03:21:03.804Z,68.08
2023-03-31T03:23:31.269Z,67.82
2023-03-31T03:25:58.425Z,66.93
2023-03-31T03:28:25.571Z,68.18
2023-03-31T03:30:53.467Z,67.73
2023-03-31T03:33:24.853Z,67.28
2023-03-31T03:35:52.101Z,67.82
2023-03-31T03:38:19.553Z,67.96
2023-03-31T03:40:49.560Z,66.21
2023-03-31T03:43:17.158Z,66.63
2023-03-31T03:45:50.304Z,67.08
2023-03-31T03:48:18.127Z,68.85
2023-03-31T03:50:48.741Z,67.86
2023-03-31T03:53:16.343Z,67.94
2023-03-31T03:55:44.747Z,67.72
2023-03-31T03:58:11.811Z,68.25
2023-03-31T04:00:38.920Z,66.68
2023-03-31T04:03:06.196Z,68.56
2023-03-31T04:05:33.313Z,68.29
2023-03-31T04:08:00.385Z,67.93
2023-03-31T04:10:27.473Z,67.50
2023-03-31T04:12:54.558Z,67.23
2023-03-31T04:15:21.728Z,69.03
2023-03-31T04:17:51.047Z,67.45
2023-03-31T04:20:18.413Z,67.58
2023-03-31T04:22:47.178Z,68.21
2023-03-31T04:25:16.640Z,67.23
2023-03-31T04:27:55.635Z,67.17
2023-03-31T04:30:30.974Z,66.97
2023-03-31T04:33:02.787Z,67.94
2023-03-31T04:35:50.384Z,67.84
2023-03-31T04:38:21.706Z,69.43
2023-03-31T04:40:54.353Z,68.26
2023-03-31T04:43:22.317Z,69.09
2023-03-31T04:45:49.436Z,69.95
2023-03-31T04:48:17.062Z,69.09
2023-03-31T04:50:46.413Z,67.60
2023-03-31T04:53:13.600Z,67.91
2023-03-31T04:55:41.121Z,67.44
2023-03-31T04:58:08.198Z,67.71
2023-03-31T05:00:35.360Z,68.09
2023-03-31T05:03:03.336Z,68.13
2023-03-31T05:05:30.962Z,67.74
2023-03-31T05:07:58.302Z,67.86
2023-03-31T05:10:25.581Z,67.80
2023-03-31T05:12:52.690Z,67.40
2023-03-31T05:15:20.447Z,67.82
2023-03-31T05:17:47.704Z,67.75
2023-03-31T05:20:14.842Z,68.55
2023-03-31T05:22:43.847Z,68.49
2023-03-31T05:25:17.188Z,67.15
2023-03-31T05:27:47.391Z,67.45
2023-03-31T05:30:18.537Z,68.65
2023-03-31T05:32:45.713Z,68.29
2023-03-31T05:35:12.815Z,68.53
2023-03-31T05:37:40.041Z,67.33
2023-03-31T05:40:09.252Z,67.04
2023-03-31T05:42:36.865Z,67.24
2023-03-31T05:45:08.554Z,66.43
2023-03-31T05:47:36.925Z,68.02
2023-03-31T05:50:08.012Z,67.57
2023-03-31T05:52:36.265Z,67.38
2023-03-31T05:55:04.825Z,67.31
2023-03-31T05:57:32.575Z,66.65
2023-03-31T05:59:59.696Z,66.27
2023-03-31T06:02:27.107Z,66.25
2023-03-31T06:04:54.503Z,65.42
2023-03-31T06:07:24.817Z,65.05
2023-03-31T06:09:52.241Z,64.36
2023-03-31T06:12:19.489Z,64.70
2023-03-31T06:14:46.601Z,64.85
2023-03-31T06:17:13.723Z,64.73
2023-03-31T06:19:40.846Z,64.39
2023-03-31T06:22:07.980Z,64.40
2023-03-31T06:24:37.676Z,65.37
2023-03-31T06:27:06.936Z,64.64
2023-03-31T06:29:34.113Z,64.82
2023-03-31T06:32:01.366Z,64.95
2023-03-31T06:34:28.688Z,63.94
2023-03-31T06:36:55.820Z,64.51
2023-03-31T06:39:23.572Z,63.89
2023-03-31T06:41:51.412Z,65.22
2023-03-31T06:44:19.355Z,65.12
2023-03-31T06:46:46.585Z,64.44
2023-03-31T06:49:16.492Z,64.70
2023-03-31T06:51:43.662Z,64.04
2023-03-31T06:54:11.145Z,63.26
2023-03-31T06:56:38.273Z,62.89
2023-03-31T06:59:05.523Z,62.88
2023-03-31T07:01:37.188Z,62.82
2023-03-31T07:04:04.982Z,63.21
2023-03-31T07:06:32.281Z,62.11
2023-03-31T07:08:59.514Z,62.08
2023-03-31T07:11:26.588Z,61.65
2023-03-31T07:13:53.724Z,61.98
2023-03-31T07:16:20.857Z,60.95
2023-03-31T07:18:47.986Z,61.08
2023-03-31T07:21:15.244Z,60.52
2023-03-31T07:23:42.436Z,59.98
2023-03-31T07:26:09.613Z,60.08
2023-03-31T07:28:36.963Z,58.84
2023-03-31T07:31:14.477Z,59.48
2023-03-31T07:33:42.142Z,59.27
2023-03-31T07:36:13.368Z,59.80
2023-03-31T07:38:44.434Z,59.08
2023-03-31T07:41:20.233Z,58.42
2023-03-31T07:43:48.710Z,58.73
2023-03-31T07:46:26.422Z,57.69
2023-03-31T07:48:56.828Z,57.62
2023-03-31T07:51:27.120Z,57.32
2023-03-31T07:53:54.528Z,57.49
2023-03-31T07:56:25.366Z,57.71
2023-03-31T07:58:56.096Z,57.77
2023-03-31T08:01:26.486Z,56.69
2023-03-31T08:03:55.898Z,57.72
2023-03-31T08:06:26.706Z,56.68
2023-03-31T08:08:54.005Z,55.59
2023-03-31T08:11:30.033Z,57.22
2023-03-31T08:13:57.622Z,56.63
2023-03-31T08:16:25.072Z,57.32
2023-03-31T08:18:52.321Z,56.92
2023-03-31T08:21:23.698Z,55.88
2023-03-31T08:23:58.256Z,57.03
2023-03-31T08:26:25.690Z,56.68
2023-03-31T08:28:53.806Z,58.09
2023-03-31T08:33:51.268Z,56.35
2023-03-31T08:36:18.450Z,55.69
2023-03-31T08:38:49.936Z,54.83
2023-03-31T08:41:57.185Z,54.63
2023-03-31T08:44:44.965Z,55.31
2023-03-31T08:47:22.477Z,54.50
2023-03-31T08:50:00.439Z,54.47
2023-03-31T08:52:40.349Z,53.55
2023-03-31T08:55:32.402Z,54.10
2023-03-31T08:58:20.949Z,54.11
2023-03-31T09:01:13.906Z,53.08
2023-03-31T09:03:58.704Z,52.48
2023-03-31T09:07:39.372Z,53.33
2023-03-31T09:11:04.753Z,52.13
2023-03-31T09:14:25.398Z,51.67
2023-03-31T09:17:33.623Z,52.13
2023-03-31T09:20:22.370Z,53.05
2023-03-31T09:23:06.671Z,53.53
2023-03-31T09:25:39.098Z,52.48
2023-03-31T09:28:24.022Z,52.84
2023-03-31T09:30:51.871Z,52.03
2023-03-31T09:33:33.193Z,52.38
2023-03-31T09:36:19.107Z,52.03
2023-03-31T09:38:47.335Z,51.42
2023-03-31T09:41:17.451Z,52.30
2023-03-31T09:43:46.274Z,52.54
2023-03-31T09:46:35.732Z,53.17
2023-03-31T09:49:17.865Z,52.36
2023-03-31T09:51:52.823Z,52.44
2023-03-31T09:54:35.174Z,51.80
2023-03-31T09:57:02.933Z,52.44
2023-03-31T09:59:38.876Z,49.75
2023-03-31T10:02:40.519Z,52.45
2023-03-31T10:05:26.165Z,50.77
2023-03-31T10:08:38.117Z,53.41
2023-03-31T10:11:05.391Z,53.33
2023-03-31T10:14:13.452Z,52.70
2023-03-31T10:16:58.767Z,52.71
2023-03-31T10:19:33.723Z,52.22
2023-03-31T10:22:32.759Z,51.71
2023-03-31T10:25:26.131Z,53.92
2023-03-31T10:27:56.694Z,54.54
2023-03-31T10:30:30.621Z,54.15
2023-03-31T10:35:34.033Z,55.80
2023-03-31T10:38:17.328Z,54.12
2023-03-31T10:40:55.506Z,53.96
2023-03-31T10:43:47.415Z,53.20
2023-03-31T10:46:14.581Z,53.84
2023-03-31T10:48:44.441Z,52.80
2023-03-31T10:51:36.048Z,55.30
2023-03-31T10:54:04.210Z,54.03
2023-03-31T10:56:43.260Z,55.58
2023-03-31T10:59:51.858Z,55.68
2023-03-31T11:02:50.363Z,59.34
2023-03-31T11:05:37.278Z,56.95
2023-03-31T11:08:25.243Z,56.47
2023-03-31T11:11:23.757Z,55.68
2023-03-31T11:14:33.509Z,54.59
2023-03-31T11:17:22.536Z,53.46
2023-03-31T11:20:36.206Z,52.20
2023-03-31T11:23:19.061Z,52.41
2023-03-31T11:26:47.603Z,51.26
2023-03-31T11:29:50.513Z,51.82
2023-03-31T11:32:52.118Z,52.67
2023-03-31T11:36:00.258Z,51.92
2023-03-31T11:38:50.591Z,56.86
2023-03-31T11:41:51.874Z,55.50
2023-03-31T11:44:22.746Z,55.85
2023-03-31T11:47:01.968Z,51.69
2023-03-31T11:49:45.847Z,53.96
2023-03-31T11:52:37.648Z,55.40
2023-03-31T11:55:15.563Z,55.39
2023-03-31T11:58:21.966Z,52.96
2023-03-31T12:01:27.964Z,53.26
2023-03-31T12:04:02.126Z,53.32
2023-03-31T12:06:39.963Z,53.27
2023-03-31T12:09:47.963Z,52.81
2023-03-31T12:12:30.016Z,49.23
2023-03-31T12:15:43.908Z,48.22
2023-03-31T12:18:25.987Z,48.18
2023-03-31T12:20:58.112Z,47.62
2023-03-31T12:23:45.345Z,49.22
2023-03-31T12:26:57.679Z,49.26
2023-03-31T12:29:42.377Z,50.45
2023-03-31T12:32:38.491Z,49.79
2023-03-31T12:35:36.126Z,51.03
2023-03-31T12:38:49.876Z,51.03
2023-03-31T12:41:58.863Z,50.99
2023-03-31T12:45:18.041Z,51.14
2023-03-31T12:48:24.976Z,53.46
2023-03-31T12:51:27.716Z,57.92
2023-03-31T12:54:28.975Z,58.44
2023-03-31T12:57:02.043Z,57.39
2023-03-31T12:59:44.651Z,61.49
2023-03-31T13:02:17.836Z,62.18
2023-03-31T13:04:45.578Z,62.13
2023-03-31T13:07:29.212Z,64.16
2023-03-31T13:10:14.879Z,65.71
2023-03-31T13:12:53.446Z,66.45
2023-03-31T13:15:21.303Z,65.38
2023-03-31T13:18:06.005Z,67.30
2023-03-31T13:20:42.023Z,61.90
2023-03-31T13:23:11.962Z,61.43
2023-03-31T13:25:47.599Z,60.35
2023-03-31T13:28:21.724Z,60.05
2023-03-31T13:31:03.063Z,59.90
2023-03-31T13:33:58.405Z,60.78
2023-03-31T13:36:34.472Z,61.89
2023-03-31T13:39:27.509Z,63.47
2023-03-31T13:42:43.461Z,63.89
2023-03-31T13:45:57.120Z,64.46
2023-03-31T13:49:03.882Z,65.68
2023-03-31T13:52:07.328Z,65.47
2023-03-31T13:55:02.484Z,66.42
2023-03-31T13:58:32.888Z,67.48
2023-03-31T14:01:51.972Z,67.16
2023-03-31T14:04:46.916Z,68.12
2023-03-31T14:07:38.552Z,69.74
2023-03-31T14:10:07.322Z,69.55
2023-03-31T14:12:37.656Z,71.21
2023-03-31T14:15:07.479Z,69.82
2023-03-31T14:17:40.679Z,71.09
2023-03-31T14:20:43.915Z,69.90
2023-03-31T14:23:40.658Z,69.70
2023-03-31T14:26:27.041Z,70.71
2023-03-31T14:29:26.894Z,70.96
2023-03-31T14:32:45.950Z,72.13
2023-03-31T14:35:40.094Z,72.22
2023-03-31T14:38:35.086Z,71.70
2023-03-31T14:41:05.884Z,73.03
2023-03-31T14:43:40.080Z,72.49
2023-03-31T14:46:12.810Z,70.47
2023-03-31T14:48:49.016Z,70.52
2023-03-31T14:51:29.723Z,70.99
2023-03-31T14:54:02.130Z,70.80
2023-03-31T14:56:39.114Z,70.78
2023-03-31T14:59:08.172Z,70.91
2023-03-31T15:01:38.373Z,71.66
2023-03-31T15:04:20.436Z,71.96
2023-03-31T15:06:51.976Z,71.75
2023-03-31T15:09:29.411Z,70.42
2023-03-31T15:12:15.264Z,70.74
2023-03-31T15:14:58.280Z,69.82
2023-03-31T15:17:37.566Z,71.39
2023-03-31T15:20:34.966Z,70.89
2023-03-31T15:23:21.297Z,70.64
2023-03-31T15:25:59.050Z,72.33
2023-03-31T15:28:34.366Z,72.07
2023-03-31T15:31:10.094Z,71.04
2023-03-31T15:33:41.657Z,71.84
2023-03-31T15:36:13.670Z,71.78
2023-03-31T15:38:41.964Z,71.88
2023-03-31T15:41:17.501Z,71.96
2023-03-31T15:44:27.643Z,72.43
2023-03-31T15:47:18.596Z,71.93
2023-03-31T15:50:14.592Z,72.13
2023-03-31T15:52:57.765Z,71.77
2023-03-31T15:58:16.824Z,71.83
2023-03-31T16:01:05.095Z,72.34
2023-03-31T16:03:38.722Z,72.21
2023-03-31T16:06:24.828Z,71.54
2023-03-31T16:09:31.973Z,70.83
2023-03-31T16:15:14.724Z,70.32
2023-03-31T16:17:51.880Z,71.43
2023-03-31T16:20:37.131Z,71.34
2023-03-31T16:23:26.689Z,71.83
2023-03-31T16:25:54.367Z,71.94
2023-03-31T16:28:30.350Z,70.02
2023-03-31T16:31:01.768Z,71.56
2023-03-31T16:33:52.624Z,70.03
2023-03-31T16:36:19.742Z,71.05
2023-03-31T16:38:46.987Z,70.53
2023-03-31T16:41:15.930Z,70.01
2023-03-31T16:43:46.322Z,70.42
2023-03-31T16:46:13.550Z,70.10
2023-03-31T16:48:40.724Z,71.03
2023-03-31T16:51:07.865Z,70.92
2023-03-31T16:53:37.134Z,70.12
2023-03-31T16:56:09.935Z,70.98
2023-03-31T16:58:38.833Z,70.28
2023-03-31T17:01:07.751Z,71.03
2023-03-31T17:03:37.886Z,70.57
2023-03-31T17:06:13.178Z,70.85
2023-03-31T17:08:40.750Z,70.41
2023-03-31T17:11:14.251Z,70.20
2023-03-31T17:13:43.658Z,71.07
2023-03-31T17:18:44.547Z,71.30
2023-03-31T17:21:15.348Z,71.25
2023-03-31T17:23:43.036Z,71.04
2023-03-31T17:26:12.665Z,71.21
2023-03-31T17:28:42.288Z,70.89
2023-03-31T17:31:19.705Z,70.50
2023-03-31T17:33:48.324Z,71.37
2023-03-31T17:36:16.724Z,71.05
2023-03-31T17:38:44.950Z,72.21
2023-03-31T17:41:13.749Z,71.19
2023-03-31T17:43:45.353Z,71.04
2023-03-31T17:46:13.658Z,71.34
2023-03-31T17:48:43.092Z,70.93
2023-03-31T17:51:18.252Z,70.95
2023-03-31T17:53:47.689Z,71.84
2023-03-31T17:56:17.579Z,70.93
2023-03-31T17:58:46.215Z,70.38
2023-03-31T18:01:14.410Z,71.25
2023-03-31T18:03:42.277Z,71.41
2023-03-31T18:06:14.458Z,72.57
2023-03-31T18:08:42.623Z,71.43
2023-03-31T18:11:11.043Z,71.96
2023-03-31T18:13:38.757Z,72.18
2023-03-31T18:16:09.701Z,71.62
2023-03-31T18:18:38.080Z,72.50
2023-03-31T18:21:10.670Z,72.68
2023-03-31T18:23:38.337Z,72.25
2023-03-31T18:26:12.257Z,72.03
2023-03-31T18:28:40.771Z,72.67
2023-03-31T18:31:09.827Z,72.04
2023-03-31T18:33:37.126Z,71.84
2023-03-31T18:36:06.047Z,71.63
2023-03-31T18:38:36.982Z,71.87
2023-03-31T18:41:04.974Z,73.39
2023-03-31T18:43:33.387Z,73.11
2023-03-31T18:46:01.790Z,72.67
2023-03-31T18:48:29.437Z,72.65
2023-03-31T18:50:57.447Z,72.90
2023-03-31T18:53:27.274Z,72.28
2023-03-31T18:55:58.684Z,72.36
2023-03-31T18:58:29.325Z,74.15
2023-03-31T19:01:01.279Z,72.39
2023-03-31T19:03:28.847Z,73.55
2023-03-31T19:06:11.744Z,71.64
2023-03-31T19:08:40.496Z,72.54
2023-03-31T19:11:15.627Z,73.57
2023-03-31T19:13:43.851Z,74.00
2023-03-31T19:16:13.173Z,74.35
2023-03-31T19:18:41.125Z,74.41
2023-03-31T19:21:08.327Z,74.86
2023-03-31T19:23:35.571Z,76.38
2023-03-31T19:26:03.063Z,75.90
2023-03-31T19:28:30.592Z,75.52
2023-03-31T19:30:59.260Z,75.36
2023-03-31T19:33:27.115Z,74.04
2023-03-31T19:35:54.822Z,74.32
2023-03-31T19:38:22.356Z,73.58
2023-03-31T19:40:49.943Z,73.65
2023-03-31T19:43:21.570Z,72.51
2023-03-31T19:45:50.353Z,72.93
2023-03-31T19:48:19.202Z,73.52
2023-03-31T19:51:02.304Z,73.90
2023-03-31T19:53:31.216Z,74.74
2023-03-31T19:56:07.991Z,73.81
2023-03-31T19:58:36.647Z,75.25
2023-03-31T20:01:17.711Z,75.13
2023-03-31T20:03:45.743Z,75.51
2023-03-31T20:06:15.118Z,74.41
2023-03-31T20:08:43.694Z,74.26
2023-03-31T20:11:14.469Z,73.35
2023-03-31T20:13:43.328Z,73.77
2023-03-31T20:16:19.067Z,72.71
2023-03-31T20:19:04.426Z,73.38
2023-03-31T20:21:58.745Z,74.34
2023-03-31T20:24:27.752Z,73.58
2023-03-31T20:26:54.837Z,74.76
2023-03-31T20:29:24.740Z,73.97
2023-03-31T20:31:52.140Z,73.84
2023-03-31T20:34:22.406Z,73.20
2023-03-31T20:36:51.869Z,72.95
2023-03-31T20:39:20.901Z,74.31
2023-03-31T20:41:50.045Z,73.76
2023-03-31T20:44:20.177Z,73.63
2023-03-31T20:46:47.541Z,74.06
2023-03-31T20:49:14.815Z,74.31
2023-03-31T20:51:42.485Z,74.60
2023-03-31T20:54:09.733Z,73.54
2023-03-31T20:56:41.668Z,73.30
2023-03-31T20:59:13.711Z,73.46
2023-03-31T21:01:42.527Z,72.87
2023-03-31T21:04:11.524Z,73.01
2023-03-31T21:06:43.895Z,73.16
2023-03-31T21:09:15.094Z,72.77
2023-03-31T21:11:42.719Z,71.50
2023-03-31T21:14:17.236Z,72.03
2023-03-31T21:16:45.327Z,72.34
2023-03-31T21:19:12.569Z,72.33
2023-03-31T21:21:41.328Z,71.85
2023-03-31T21:24:12.381Z,71.25
2023-03-31T21:26:40.702Z,72.10
2023-03-31T21:29:07.847Z,71.57
2023-03-31T21:31:35.105Z,71.41
2023-03-31T21:34:03.368Z,71.94
2023-03-31T21:36:30.756Z,72.05
2023-03-31T21:38:58.133Z,72.74
2023-03-31T21:41:30.558Z,73.71
2023-03-31T21:44:01.749Z,74.42
2023-03-31T21:46:33.319Z,74.79
2023-03-31T21:49:01.275Z,75.92
2023-03-31T21:51:28.886Z,73.92
2023-03-31T21:53:56.451Z,74.27
2023-03-31T21:56:27.714Z,74.23
2023-03-31T21:58:55.569Z,74.01
2023-03-31T22:01:23.531Z,74.57
2023-03-31T22:03:51.848Z,74.29
2023-03-31T22:06:19.060Z,73.83
2023-03-31T22:08:46.307Z,73.36
2023-03-31T22:11:14.456Z,72.83
2023-03-31T22:13:41.584Z,73.99
2023-03-31T22:16:22.414Z,73.51
2023-03-31T22:18:50.684Z,73.87
2023-03-31T22:21:25.430Z,74.27
2023-03-31T22:23:56.814Z,74.08
2023-03-31T22:26:25.996Z,74.16
2023-03-31T22:28:53.315Z,73.76
2023-03-31T22:31:20.700Z,72.76
2023-03-31T22:33:48.061Z,73.21
2023-03-31T22:36:15.646Z,73.39
2023-03-31T22:38:42.870Z,73.07
2023-03-31T22:41:10.087Z,73.20
2023-03-31T22:43:37.235Z,72.84
2023-03-31T22:46:08.464Z,72.82
2023-03-31T22:48:35.798Z,73.10
2023-03-31T22:51:05.782Z,72.23
2023-03-31T22:53:33.763Z,72.59
2023-03-31T22:56:11.836Z,72.65
2023-03-31T22:58:39.466Z,73.12
2023-03-31T23:01:09.589Z,72.93
2023-03-31T23:03:37.222Z,72.41
2023-03-31T23:06:05.721Z,72.98
2023-03-31T23:08:35.508Z,73.31
2023-03-31T23:11:07.490Z,72.97
2023-03-31T23:13:35.468Z,72.91
2023-03-31T23:16:16.669Z,72.45
2023-03-31T23:18:46.872Z,73.07
2023-03-31T23:21:19.317Z,73.46
2023-03-31T23:23:50.039Z,73.82
2023-03-31T23:26:19.049Z,73.72
2023-03-31T23:28:49.279Z,74.35
2023-03-31T23:31:26.779Z,73.30
2023-03-31T23:33:53.980Z,73.12
2023-03-31T23:36:25.757Z,73.33
2023-03-31T23:38:56.254Z,73.57
2023-03-31T23:41:26.399Z,73.34
2023-03-31T23:43:54.505Z,72.89
2023-03-31T23:46:21.758Z,73.00
2023-03-31T23:48:49.180Z,73.41
2023-03-31T23:51:16.323Z,74.06
2023-03-31T23:53:43.458Z,73.76
2023-03-31T23:56:13.419Z,73.92
2023-03-31T23:58:42.940Z,74.09
